Time;durP1;ratioP1;P1;durP2;ratioP2;P2;SDS_P1;SDS_P2;PMS_P1;PMS_P2;Temp;Humidity;BMP_temperature;BMP_pressure;BME280_temperature;BME280_humidity;BME280_pressure;Samples;Min_cycle;Max_cycle;Signal;HPM_P1;HPM_P2
2023/09/24 00:01:06;;;;;;;2.08;0.90;;;11.80;97.40;;;;;;5003447;28;20057;-92
2023/09/24 00:03:33;;;;;;;2.15;0.68;;;11.80;97.40;;;;;;5019575;28;20041;-92
2023/09/24 00:06:09;;;;;;;3.10;0.90;;;11.80;97.50;;;;;;5000900;28;20054;-92
2023/09/24 00:08:36;;;;;;;1.60;0.70;;;11.80;97.40;;;;;;4984707;28;20492;-92
2023/09/24 00:11:04;;;;;;;2.67;0.73;;;11.70;97.40;;;;;;4967661;28;20046;-92
2023/09/24 00:13:34;;;;;;;1.90;0.68;;;11.70;97.50;;;;;;4985189;28;20423;-93
2023/09/24 00:16:06;;;;;;;2.28;0.60;;;11.70;97.50;;;;;;4997884;28;20065;-92
2023/09/24 00:18:34;;;;;;;;;;;11.70;97.50;;;;;;5050760;28;20045;-92
2023/09/24 00:21:01;;;;;;;1.55;0.50;;;11.60;97.50;;;;;;5046748;28;19928;-92
2023/09/24 00:23:29;;;;;;;2.00;0.55;;;11.60;97.60;;;;;;5045760;28;20058;-92
2023/09/24 00:25:57;;;;;;;1.77;0.57;;;11.50;97.50;;;;;;5054519;28;20053;-93
2023/09/24 00:28:24;;;;;;;2.78;0.75;;;11.50;97.50;;;;;;5060129;28;20125;-92
2023/09/24 00:30:52;;;;;;;1.55;0.70;;;11.50;97.50;;;;;;5049805;28;20045;-93
2023/09/24 00:33:21;;;;;;;1.52;0.70;;;11.50;97.50;;;;;;5043393;28;20049;-92
2023/09/24 00:35:48;;;;;;;1.35;0.70;;;11.50;97.50;;;;;;5051879;28;20075;-92
2023/09/24 00:38:16;;;;;;;1.23;0.57;;;11.40;97.50;;;;;;4995486;28;20076;-91
2023/09/24 00:40:44;;;;;;;1.15;0.50;;;11.40;97.50;;;;;;5051644;28;20057;-92
2023/09/24 00:43:28;;;;;;;1.05;0.52;;;11.40;97.50;;;;;;5001077;28;20045;-92
2023/09/24 00:45:59;;;;;;;2.00;0.63;;;11.40;97.50;;;;;;5020239;28;20049;-92
2023/09/24 00:48:30;;;;;;;1.67;0.73;;;11.40;97.50;;;;;;5035152;28;20056;-92
2023/09/24 00:50:59;;;;;;;1.42;0.60;;;11.30;97.50;;;;;;5020138;28;20046;-92
2023/09/24 00:53:29;;;;;;;2.65;0.77;;;11.30;97.50;;;;;;5025828;28;20041;-93
2023/09/24 00:55:57;;;;;;;2.45;0.95;;;11.30;97.50;;;;;;5033730;28;20044;-92
2023/09/24 00:58:25;;;;;;;1.77;0.80;;;11.30;97.60;;;;;;4996616;28;20053;-92
2023/09/24 01:00:54;;;;;;;2.08;0.77;;;11.20;97.50;;;;;;5038163;28;20048;-92
2023/09/24 01:03:26;;;;;;;2.17;0.75;;;11.20;97.60;;;;;;5024796;28;20041;-92
2023/09/24 01:05:54;;;;;;;1.60;0.63;;;11.20;97.60;;;;;;5030880;28;20495;-92
2023/09/24 01:08:24;;;;;;;3.15;0.77;;;11.10;97.60;;;;;;5019348;28;20160;-92
2023/09/24 01:10:52;;;;;;;1.85;0.68;;;11.10;97.60;;;;;;5042518;28;20053;-92
2023/09/24 01:13:19;;;;;;;2.13;1.00;;;11.10;97.60;;;;;;5050285;28;20049;-93
2023/09/24 01:15:50;;;;;;;2.17;0.88;;;11.10;97.60;;;;;;5030395;28;20048;-92
2023/09/24 01:18:20;;;;;;;2.47;0.88;;;11.10;97.60;;;;;;5044465;28;20121;-92
2023/09/24 01:20:47;;;;;;;2.22;1.13;;;11.10;97.60;;;;;;5052477;28;20053;-92
2023/09/24 01:23:17;;;;;;;2.17;0.80;;;11.10;97.60;;;;;;5010196;28;20136;-91
2023/09/24 01:25:45;;;;;;;2.45;1.10;;;11.00;97.60;;;;;;5022344;28;20079;-92
2023/09/24 01:28:12;;;;;;;1.60;0.95;;;11.00;97.60;;;;;;5054712;28;20045;-92
2023/09/24 01:30:39;;;;;;;2.50;0.80;;;11.00;97.60;;;;;;5049494;28;20093;-93
2023/09/24 01:33:06;;;;;;;1.52;0.63;;;10.90;97.60;;;;;;5038812;28;20099;-92
2023/09/24 01:35:35;;;;;;;2.25;0.95;;;10.90;97.60;;;;;;5008299;28;20045;-92
2023/09/24 01:38:06;;;;;;;1.65;0.95;;;10.90;97.60;;;;;;5037272;28;20514;-93
2023/09/24 01:40:37;;;;;;;2.10;0.75;;;10.90;97.60;;;;;;5037839;28;20049;-92
2023/09/24 01:43:06;;;;;;;2.17;0.57;;;10.90;97.60;;;;;;5021274;28;20048;-93
2023/09/24 01:45:34;;;;;;;1.55;0.77;;;10.80;97.60;;;;;;5037494;28;20044;-93
2023/09/24 01:48:04;;;;;;;2.00;0.85;;;10.80;97.60;;;;;;5037337;28;20133;-92
2023/09/24 01:50:36;;;;;;;1.30;0.70;;;10.80;97.90;;;;;;5036940;28;20055;-93
2023/09/24 01:53:05;;;;;;;1.65;0.70;;;10.80;97.60;;;;;;5021166;28;20411;-93
2023/09/24 01:55:36;;;;;;;1.35;0.70;;;10.80;97.70;;;;;;5037137;28;20483;-92
2023/09/24 01:58:03;;;;;;;2.50;0.60;;;10.70;97.60;;;;;;5037894;28;20095;-93
2023/09/24 02:00:30;;;;;;;3.28;0.80;;;10.70;97.60;;;;;;5043656;28;20077;-93
2023/09/24 02:02:59;;;;;;;2.08;0.70;;;10.70;97.90;;;;;;5017829;28;20136;-94
2023/09/24 02:05:32;;;;;;;1.38;0.73;;;10.70;97.70;;;;;;5017768;28;20053;-92
2023/09/24 02:08:00;;;;;;;;;;;10.70;97.70;;;;;;5033906;28;20384;-93
2023/09/24 02:10:28;;;;;;;1.75;0.55;;;10.60;97.70;;;;;;5001462;28;19963;-93
2023/09/24 02:12:55;;;;;;;1.88;0.65;;;10.60;97.70;;;;;;5017053;28;20056;-93
2023/09/24 02:15:23;;;;;;;1.08;0.50;;;10.60;97.70;;;;;;5025422;28;20041;-93
2023/09/24 02:17:50;;;;;;;1.17;0.45;;;10.60;97.70;;;;;;5000748;28;20056;-93
2023/09/24 02:20:23;;;;;;;1.42;0.68;;;10.50;97.70;;;;;;5020168;28;20061;-93
2023/09/24 02:22:52;;;;;;;;;;;10.50;97.70;;;;;;5022580;28;20053;-93
2023/09/24 02:25:20;;;;;;;4.65;1.42;;;10.50;97.70;;;;;;5004570;28;20019;-93
2023/09/24 02:27:53;;;;;;;2.42;0.68;;;10.40;97.70;;;;;;5043200;28;20054;-92
2023/09/24 02:30:22;;;;;;;2.17;0.70;;;10.40;97.70;;;;;;5020406;28;20045;-92
2023/09/24 02:32:49;;;;;;;0.95;0.52;;;10.40;97.70;;;;;;5037458;28;20048;-93
2023/09/24 02:35:17;;;;;;;1.25;0.60;;;10.40;97.70;;;;;;5021057;28;20061;-93
2023/09/24 02:37:47;;;;;;;1.10;0.75;;;10.40;97.70;;;;;;5037214;28;20045;-93
2023/09/24 02:40:16;;;;;;;1.83;0.82;;;10.40;97.70;;;;;;5037683;28;20042;-92
2023/09/24 02:42:46;;;;;;;2.08;0.57;;;10.40;97.70;;;;;;5036998;28;20049;-93
2023/09/24 02:45:16;;;;;;;1.85;0.73;;;10.30;97.70;;;;;;5020896;28;20075;-93
2023/09/24 02:47:49;;;;;;;2.08;0.77;;;10.30;97.70;;;;;;5035975;28;20135;-93
2023/09/24 02:50:21;;;;;;;1.10;0.50;;;10.30;97.70;;;;;;5041510;28;20485;-92
2023/09/24 02:52:49;;;;;;;1.13;0.52;;;10.20;97.70;;;;;;5024749;28;20544;-92
2023/09/24 02:55:18;;;;;;;1.70;0.60;;;10.20;97.70;;;;;;5021337;28;20049;-90
2023/09/24 02:57:46;;;;;;;2.67;0.57;;;10.20;97.70;;;;;;5004321;28;20042;-92
2023/09/24 03:00:18;;;;;;;1.73;0.57;;;10.20;97.70;;;;;;5004149;28;20096;-93
2023/09/24 03:02:46;;;;;;;1.73;0.63;;;10.20;97.70;;;;;;5049521;28;20053;-92
2023/09/24 03:05:19;;;;;;;2.13;0.82;;;10.10;97.70;;;;;;5056857;28;20099;-93
2023/09/24 03:07:50;;;;;;;1.42;0.80;;;10.10;97.70;;;;;;5043745;28;20507;-92
2023/09/24 03:10:22;;;;;;;1.23;0.47;;;10.10;97.70;;;;;;5020572;28;20080;-92
2023/09/24 03:12:50;;;;;;;1.83;0.77;;;10.10;97.70;;;;;;5036923;28;20045;-92
2023/09/24 03:15:19;;;;;;;0.98;0.50;;;10.00;97.70;;;;;;5036497;28;20434;-93
2023/09/24 03:17:47;;;;;;;2.70;1.00;;;10.00;97.70;;;;;;5020064;28;20128;-93
2023/09/24 03:20:16;;;;;;;1.92;0.80;;;10.00;97.80;;;;;;5020452;28;20049;-92
2023/09/24 03:22:56;;;;;;;1.88;0.50;;;10.00;97.80;;;;;;5020474;28;20487;-93
2023/09/24 03:25:25;;;;;;;1.38;0.70;;;10.00;97.70;;;;;;5020819;28;20556;-92
2023/09/24 03:27:55;;;;;;;1.80;0.70;;;9.90;97.70;;;;;;5041537;28;20052;-93
2023/09/24 03:30:23;;;;;;;1.42;0.55;;;9.90;97.70;;;;;;5052426;28;20053;-93
2023/09/24 03:32:51;;;;;;;1.90;0.95;;;9.90;97.70;;;;;;5039537;28;20052;-92
2023/09/24 03:35:24;;;;;;;1.60;0.68;;;9.90;97.70;;;;;;5039537;28;20052;-92
2023/09/24 03:37:54;;;;;;;1.90;0.77;;;9.90;97.70;;;;;;5039488;28;20069;-92
2023/09/24 03:40:27;;;;;;;1.95;0.60;;;9.80;97.70;;;;;;5056148;28;20072;-92
2023/09/24 03:42:55;;;;;;;2.03;0.70;;;9.90;97.70;;;;;;5053223;28;20041;-93
2023/09/24 03:45:23;;;;;;;2.10;0.80;;;9.80;97.70;;;;;;5019594;28;20048;-92
2023/09/24 03:47:54;;;;;;;1.45;0.80;;;9.80;97.70;;;;;;4990601;28;20049;-93
2023/09/24 03:50:22;;;;;;;2.13;0.88;;;9.80;97.70;;;;;;5039552;28;20108;-93
2023/09/24 03:52:51;;;;;;;4.50;1.27;;;9.80;97.70;;;;;;5039028;28;20047;-92
2023/09/24 03:55:19;;;;;;;1.35;0.68;;;9.80;97.70;;;;;;5022884;28;20038;-93
2023/09/24 03:57:48;;;;;;;1.40;0.68;;;9.80;97.70;;;;;;5049789;28;20462;-93
2023/09/24 04:00:18;;;;;;;1.20;0.57;;;9.80;97.70;;;;;;5029902;28;20042;-93
2023/09/24 04:02:47;;;;;;;1.50;0.50;;;9.70;97.70;;;;;;4997465;28;20412;-93
2023/09/24 04:05:21;;;;;;;3.08;0.70;;;9.70;97.70;;;;;;5004354;28;20049;-93
2023/09/24 04:07:53;;;;;;;1.70;0.65;;;9.70;97.70;;;;;;5040433;28;20045;-93
2023/09/24 04:10:22;;;;;;;1.10;0.50;;;9.70;97.70;;;;;;5022942;28;20041;-94
2023/09/24 04:12:50;;;;;;;1.50;0.70;;;9.70;97.80;;;;;;5067018;28;20041;-93
2023/09/24 04:15:20;;;;;;;1.88;0.68;;;9.60;97.70;;;;;;5009695;28;20135;-92
2023/09/24 04:17:51;;;;;;;1.48;0.50;;;9.60;97.70;;;;;;5044103;28;20046;-92
2023/09/24 04:20:20;;;;;;;2.22;0.57;;;9.60;97.70;;;;;;5011896;28;20132;-93
2023/09/24 04:22:48;;;;;;;2.55;0.85;;;9.60;97.70;;;;;;5019961;28;20045;-92
2023/09/24 04:25:21;;;;;;;3.60;0.73;;;9.60;97.70;;;;;;5035482;28;20069;-93
2023/09/24 04:27:49;;;;;;;1.17;0.80;;;9.60;97.70;;;;;;5019009;28;20080;-92
2023/09/24 04:30:19;;;;;;;1.48;0.75;;;9.50;97.70;;;;;;5034838;28;20045;-93
2023/09/24 04:32:51;;;;;;;1.58;0.70;;;9.50;97.70;;;;;;5019798;28;20120;-92
2023/09/24 04:35:23;;;;;;;1.73;0.70;;;9.50;97.70;;;;;;5034923;28;20049;-92
2023/09/24 04:37:51;;;;;;;1.33;0.60;;;9.50;97.70;;;;;;5020535;28;20476;-93
2023/09/24 04:40:19;;;;;;;0.98;0.50;;;9.50;97.70;;;;;;5034631;28;20115;-92
2023/09/24 04:42:49;;;;;;;1.70;0.63;;;9.40;97.70;;;;;;5034881;28;20057;-92
2023/09/24 04:45:18;;;;;;;1.73;0.60;;;9.40;97.70;;;;;;5035535;28;20103;-92
2023/09/24 04:47:48;;;;;;;1.58;0.40;;;9.40;97.70;;;;;;5018682;28;20056;-92
2023/09/24 04:50:17;;;;;;;1.88;0.75;;;9.40;97.70;;;;;;5019002;28;20187;-92
2023/09/24 04:52:47;;;;;;;1.70;0.63;;;9.40;97.70;;;;;;5034689;28;20049;-92
2023/09/24 04:55:15;;;;;;;1.70;0.60;;;9.40;97.70;;;;;;5034748;28;20045;-92
2023/09/24 04:57:46;;;;;;;2.05;0.70;;;9.30;97.70;;;;;;5034866;28;20045;-92
2023/09/24 05:00:15;;;;;;;1.45;0.70;;;9.30;97.70;;;;;;5018622;28;20128;-94
2023/09/24 05:02:43;;;;;;;1.73;0.65;;;9.30;97.70;;;;;;5002448;28;20087;-93
2023/09/24 05:05:11;;;;;;;1.85;0.68;;;9.30;98.00;;;;;;5018334;28;20049;-93
2023/09/24 05:07:38;;;;;;;1.35;0.55;;;9.30;97.70;;;;;;5018361;28;20096;-92
2023/09/24 05:10:06;;;;;;;2.10;0.60;;;9.30;97.70;;;;;;5018284;28;20049;-92
2023/09/24 05:12:33;;;;;;;1.60;0.55;;;9.30;97.70;;;;;;5018503;28;20049;-92
2023/09/24 05:15:04;;;;;;;1.70;0.65;;;9.20;97.70;;;;;;5018351;28;20139;-92
2023/09/24 05:17:33;;;;;;;2.05;0.50;;;9.20;97.70;;;;;;5041049;28;20037;-81
2023/09/24 05:20:02;;;;;;;2.28;0.70;;;9.20;97.70;;;;;;5019588;28;20041;-81
2023/09/24 05:22:29;;;;;;;2.47;1.02;;;9.20;97.70;;;;;;5014300;28;20153;-81
2023/09/24 05:24:56;;;;;;;1.42;0.68;;;9.20;97.70;;;;;;5029673;28;20056;-81
2023/09/24 05:27:26;;;;;;;2.38;0.80;;;9.20;97.70;;;;;;5038243;28;20057;-81
2023/09/24 05:29:53;;;;;;;2.13;0.60;;;9.20;97.70;;;;;;5036069;28;20044;-81
2023/09/24 05:32:20;;;;;;;1.13;0.50;;;9.10;97.70;;;;;;5035658;28;20028;-81
2023/09/24 05:34:52;;;;;;;1.95;0.68;;;9.20;98.00;;;;;;5017267;28;20064;-81
2023/09/24 05:37:20;;;;;;;1.25;0.50;;;9.10;97.70;;;;;;5033340;28;20036;-81
2023/09/24 05:39:50;;;;;;;2.17;0.68;;;9.10;97.70;;;;;;5051844;28;20048;-81
2023/09/24 05:42:17;;;;;;;1.88;0.60;;;9.10;97.70;;;;;;5019054;28;20048;-81
2023/09/24 05:44:44;;;;;;;1.23;0.50;;;9.20;97.70;;;;;;5035340;28;20045;-81
2023/09/24 05:47:11;;;;;;;2.58;0.60;;;9.20;97.60;;;;;;5023141;28;20046;-80
2023/09/24 05:49:38;;;;;;;2.28;0.80;;;9.10;97.60;;;;;;5049191;28;20406;-81
2023/09/24 05:52:06;;;;;;;3.75;0.90;;;9.10;97.60;;;;;;5035613;28;20041;-81
2023/09/24 05:54:33;;;;;;;1.27;0.60;;;9.20;97.60;;;;;;5051132;28;20029;-81
2023/09/24 05:57:00;;;;;;;1.33;0.60;;;9.20;97.60;;;;;;5030878;28;20510;-81
2023/09/24 05:59:27;;;;;;;2.00;0.80;;;9.20;97.60;;;;;;4996724;28;20041;-80
2023/09/24 06:01:54;;;;;;;1.50;0.52;;;9.20;97.60;;;;;;5052102;28;20435;-81
2023/09/24 06:04:21;;;;;;;1.73;0.80;;;9.20;97.60;;;;;;5018742;28;20052;-81
2023/09/24 06:06:49;;;;;;;1.98;0.88;;;9.30;97.60;;;;;;5035366;28;20100;-81
2023/09/24 06:09:17;;;;;;;2.10;0.73;;;9.30;97.60;;;;;;5035728;28;20081;-81
2023/09/24 06:11:44;;;;;;;2.35;0.70;;;9.30;97.50;;;;;;5051401;28;20045;-81
2023/09/24 06:14:12;;;;;;;1.92;0.80;;;9.30;97.50;;;;;;5032552;28;20045;-81
2023/09/24 06:16:39;;;;;;;1.95;0.70;;;9.40;97.50;;;;;;5030642;28;20068;-81
2023/09/24 06:19:07;;;;;;;1.52;0.73;;;9.50;97.40;;;;;;5035157;28;20037;-81
2023/09/24 06:21:34;;;;;;;1.92;0.60;;;9.50;97.40;;;;;;5051298;28;20057;-81
2023/09/24 06:24:01;;;;;;;1.50;0.80;;;9.60;97.30;;;;;;5019093;28;20509;-81
2023/09/24 06:26:30;;;;;;;2.08;0.90;;;9.70;97.30;;;;;;5018537;28;20471;-81
2023/09/24 06:28:58;;;;;;;1.60;0.70;;;9.80;97.20;;;;;;5018878;28;20049;-82
2023/09/24 06:31:38;;;;;;;1.70;0.82;;;9.90;97.20;;;;;;5049754;28;20048;-81
2023/09/24 06:34:06;;;;;;;3.80;0.90;;;10.00;97.20;;;;;;5051437;28;20505;-81
2023/09/24 06:36:33;;;;;;;1.67;0.65;;;10.10;97.10;;;;;;5025021;28;20140;-81
2023/09/24 06:39:02;;;;;;;3.10;0.93;;;10.20;97.00;;;;;;5049308;28;20037;-81
2023/09/24 06:41:29;;;;;;;1.73;0.68;;;10.30;96.90;;;;;;5002530;28;20045;-81
2023/09/24 06:43:56;;;;;;;1.65;0.80;;;10.50;96.90;;;;;;5035097;28;20147;-81
2023/09/24 06:46:24;;;;;;;1.65;0.75;;;10.50;96.80;;;;;;5032248;28;20053;-81
2023/09/24 06:48:51;;;;;;;1.85;0.75;;;10.60;96.80;;;;;;5025666;28;20068;-81
2023/09/24 06:51:20;;;;;;;4.63;1.02;;;10.80;96.70;;;;;;5002608;28;20057;-82
2023/09/24 06:53:50;;;;;;;3.08;1.20;;;10.80;96.60;;;;;;5051390;28;20045;-81
2023/09/24 06:56:18;;;;;;;2.42;0.88;;;10.90;96.60;;;;;;5034677;28;20131;-81
2023/09/24 06:58:48;;;;;;;3.33;0.88;;;11.00;96.60;;;;;;5034951;28;20037;-81
2023/09/24 07:01:15;;;;;;;1.73;0.82;;;11.00;96.60;;;;;;5018692;28;20091;-81
2023/09/24 07:03:42;;;;;;;2.10;0.93;;;11.10;96.50;;;;;;5051237;28;20084;-81
2023/09/24 07:06:10;;;;;;;2.90;1.42;;;11.20;96.50;;;;;;5054044;28;20095;-81
2023/09/24 07:08:38;;;;;;;2.33;0.80;;;11.20;96.50;;;;;;5056368;28;20116;-81
2023/09/24 07:11:22;;;;;;;1.77;0.85;;;11.20;96.50;;;;;;5020291;28;20037;-81
2023/09/24 07:13:50;;;;;;;3.60;1.23;;;11.30;96.50;;;;;;5054935;28;20037;-81
2023/09/24 07:16:23;;;;;;;2.28;0.80;;;11.40;96.50;;;;;;5037086;28;20458;-81
2023/09/24 07:18:54;;;;;;;2.55;1.23;;;11.40;96.40;;;;;;5055162;28;20041;-82
2023/09/24 07:21:25;;;;;;;2.35;1.23;;;11.50;96.40;;;;;;5038575;28;20186;-81
2023/09/24 07:24:01;;;;;;;3.25;1.17;;;11.50;96.40;;;;;;5017363;28;20128;-81
2023/09/24 07:26:29;;;;;;;2.33;1.30;;;11.60;96.40;;;;;;5021989;28;20463;-82
2023/09/24 07:28:56;;;;;;;2.65;1.30;;;11.60;96.60;;;;;;5037682;28;20473;-81
2023/09/24 07:31:25;;;;;;;2.85;1.50;;;11.60;96.30;;;;;;5035882;28;20042;-81
2023/09/24 07:33:58;;;;;;;4.32;1.25;;;11.70;96.40;;;;;;5051532;28;20049;-81
2023/09/24 07:36:26;;;;;;;2.70;1.33;;;11.70;96.40;;;;;;5054676;28;20041;-81
2023/09/24 07:39:05;;;;;;;2.80;1.40;;;11.70;96.30;;;;;;5052903;28;20045;-81
2023/09/24 07:41:33;;;;;;;2.67;1.30;;;11.80;96.40;;;;;;5053993;28;20059;-81
2023/09/24 07:44:00;;;;;;;2.33;1.27;;;11.80;96.30;;;;;;5021236;28;20045;-81
2023/09/24 07:46:27;;;;;;;2.97;1.45;;;11.80;96.30;;;;;;5037381;28;20056;-81
2023/09/24 07:48:54;;;;;;;2.33;1.13;;;11.90;96.40;;;;;;5045245;28;20053;-82
2023/09/24 07:51:22;;;;;;;2.80;1.38;;;11.90;96.30;;;;;;5021131;28;20060;-81
2023/09/24 07:53:50;;;;;;;4.20;1.38;;;12.00;96.30;;;;;;5017082;28;20416;-81
2023/09/24 07:56:18;;;;;;;3.40;1.60;;;12.10;96.30;;;;;;5047259;28;20495;-81
2023/09/24 07:58:45;;;;;;;2.40;1.02;;;12.20;96.20;;;;;;5037754;28;20507;-81
2023/09/24 08:01:14;;;;;;;5.20;1.33;;;12.20;96.20;;;;;;5053905;28;20111;-81
2023/09/24 08:03:44;;;;;;;2.50;1.10;;;12.30;96.10;;;;;;5054041;28;20131;-81
2023/09/24 08:06:12;;;;;;;2.15;0.93;;;12.40;96.10;;;;;;5053862;28;20131;-82
2023/09/24 08:08:39;;;;;;;5.15;1.30;;;12.50;96.00;;;;;;5037368;28;20045;-80
2023/09/24 08:11:22;;;;;;;3.55;1.30;;;12.60;96.00;;;;;;4997684;28;20065;-79
2023/09/24 08:13:49;;;;;;;3.55;1.75;;;12.60;95.90;;;;;;5008536;28;20049;-81
2023/09/24 08:16:20;;;;;;;3.90;1.70;;;12.70;95.90;;;;;;5037615;28;20078;-81
2023/09/24 08:18:48;;;;;;;2.90;1.20;;;12.70;95.90;;;;;;5051625;28;20052;-82
2023/09/24 08:21:16;;;;;;;3.33;1.20;;;12.70;95.90;;;;;;5027775;28;20053;-82
2023/09/24 08:23:43;;;;;;;2.10;1.17;;;12.80;95.90;;;;;;5034799;28;20041;-82
2023/09/24 08:26:11;;;;;;;3.40;1.27;;;12.80;95.90;;;;;;5037257;28;20037;-81
2023/09/24 08:28:40;;;;;;;2.38;1.20;;;12.90;95.80;;;;;;5026032;28;20075;-82
2023/09/24 08:31:11;;;;;;;2.20;1.20;;;13.00;95.90;;;;;;5009897;28;20045;-83
2023/09/24 08:33:39;;;;;;;2.20;1.02;;;13.00;95.80;;;;;;5052593;28;20140;-81
2023/09/24 08:36:12;;;;;;;2.83;1.30;;;13.00;95.80;;;;;;5017367;28;20072;-81
2023/09/24 08:38:39;;;;;;;2.97;1.00;;;13.10;95.80;;;;;;5023863;28;20050;-82
2023/09/24 08:41:13;;;;;;;2.60;1.20;;;13.10;95.80;;;;;;5024503;28;20070;-82
2023/09/24 08:43:42;;;;;;;3.42;1.00;;;13.20;95.70;;;;;;5047555;28;20047;-82
2023/09/24 08:46:12;;;;;;;4.97;1.67;;;13.30;95.70;;;;;;5053001;28;20057;-81
2023/09/24 08:48:40;;;;;;;2.63;1.08;;;13.30;95.90;;;;;;5052917;28;20048;-82
2023/09/24 08:51:11;;;;;;;2.17;1.05;;;13.40;95.60;;;;;;5054546;28;20045;-82
2023/09/24 08:53:42;;;;;;;4.03;1.05;;;13.40;95.50;;;;;;5051972;28;20041;-81
2023/09/24 08:56:09;;;;;;;1.55;0.88;;;13.50;95.50;;;;;;5040091;28;20043;-82
2023/09/24 08:58:40;;;;;;;2.00;0.88;;;13.60;95.50;;;;;;5033883;28;20114;-82
2023/09/24 09:01:11;;;;;;;2.47;0.63;;;13.60;95.50;;;;;;5038962;28;20029;-82
2023/09/24 09:03:39;;;;;;;1.80;0.80;;;13.60;95.40;;;;;;5050865;28;20033;-81
2023/09/24 09:06:07;;;;;;;2.90;1.00;;;13.70;95.70;;;;;;5040893;28;20530;-82
2023/09/24 09:08:51;;;;;;;3.10;0.98;;;13.80;95.40;;;;;;5029248;28;20045;-82
2023/09/24 09:11:20;;;;;;;3.60;1.10;;;13.90;95.30;;;;;;5049916;28;20046;-82
2023/09/24 09:13:48;;;;;;;2.53;0.98;;;14.00;95.20;;;;;;5041857;28;20037;-82
2023/09/24 09:16:16;;;;;;;2.50;0.70;;;14.10;95.20;;;;;;5050370;28;20415;-82
2023/09/24 09:19:01;;;;;;;2.22;0.90;;;14.10;95.10;;;;;;5035483;28;20063;-82
2023/09/24 09:21:29;;;;;;;1.95;0.47;;;14.20;95.10;;;;;;5053740;28;20055;-90
2023/09/24 09:23:56;;;;;;;2.58;0.80;;;14.30;95.10;;;;;;5038074;28;20053;-89
2023/09/24 09:26:30;;;;;;;2.08;0.50;;;14.40;95.10;;;;;;5037240;28;20464;-90
2023/09/24 09:28:57;;;;;;;2.92;1.13;;;14.50;94.90;;;;;;5053448;28;20055;-90
2023/09/24 09:31:25;;;;;;;3.17;0.70;;;14.60;94.80;;;;;;5017766;28;20392;-89
2023/09/24 09:33:53;;;;;;;1.98;0.70;;;14.70;94.60;;;;;;5017233;28;20099;-92
2023/09/24 09:36:24;;;;;;;3.83;0.63;;;14.80;94.50;;;;;;5000728;28;20049;-92
2023/09/24 09:38:52;;;;;;;2.20;0.75;;;14.90;94.50;;;;;;5023186;28;20072;-89
2023/09/24 09:41:20;;;;;;;4.57;0.77;;;15.00;94.30;;;;;;5017456;28;20060;-92
2023/09/24 09:43:52;;;;;;;2.78;0.63;;;15.00;94.30;;;;;;5034091;28;20080;-92
2023/09/24 09:46:26;;;;;;;1.60;0.50;;;15.20;94.20;;;;;;5017246;28;20053;-92
2023/09/24 09:48:55;;;;;;;1.77;0.55;;;15.20;94.10;;;;;;5034212;28;20053;-92
2023/09/24 09:51:24;;;;;;;2.78;0.63;;;15.30;94.10;;;;;;5034876;28;20495;-92
2023/09/24 09:53:56;;;;;;;2.55;0.60;;;15.40;94.00;;;;;;5053589;28;20139;-90
2023/09/24 09:56:23;;;;;;;4.22;0.80;;;15.50;93.80;;;;;;5029004;28;20047;-91
2023/09/24 09:58:51;;;;;;;4.60;0.80;;;15.60;93.80;;;;;;5017204;28;20042;-90
2023/09/24 10:01:20;;;;;;;1.88;0.63;;;15.60;93.70;;;;;;5034754;28;20047;-92
2023/09/24 10:03:51;;;;;;;1.80;0.60;;;15.70;93.50;;;;;;5035524;28;20049;-93
2023/09/24 10:06:19;;;;;;;3.28;0.88;;;15.90;93.30;;;;;;5017194;28;20121;-90
2023/09/24 10:08:50;;;;;;;3.10;0.63;;;15.90;92.90;;;;;;5019891;28;20137;-90
2023/09/24 10:11:32;;;;;;;1.55;0.63;;;16.10;92.70;;;;;;5017768;28;20045;-93
2023/09/24 10:14:05;;;;;;;2.40;1.10;;;16.10;92.70;;;;;;4997594;28;20497;-90
2023/09/24 10:16:35;;;;;;;5.45;1.35;;;16.20;92.30;;;;;;5001075;28;20080;-90
2023/09/24 10:19:06;;;;;;;3.58;0.65;;;16.20;92.40;;;;;;5035578;28;20038;-91
2023/09/24 10:21:38;;;;;;;1.77;0.73;;;16.30;92.30;;;;;;5047101;28;20049;-91
2023/09/24 10:24:14;;;;;;;2.47;0.57;;;16.30;92.40;;;;;;5053321;28;20048;-95
2023/09/24 10:27:03;;;;;;;2.80;0.82;;;16.30;92.30;;;;;;5053482;28;20072;-90
2023/09/24 10:29:45;;;;;;;3.03;0.60;;;16.40;92.20;;;;;;5028177;28;20136;-91
2023/09/24 10:32:17;;;;;;;4.05;0.88;;;16.40;91.90;;;;;;5050977;28;20041;-92
2023/09/24 10:35:14;;;;;;;3.72;0.68;;;16.40;91.70;;;;;;5052638;28;20037;-92
2023/09/24 10:37:59;;;;;;;2.97;0.50;;;16.50;91.70;;;;;;5034663;28;20068;-92
2023/09/24 10:40:28;;;;;;;1.85;0.40;;;16.50;91.70;;;;;;5044478;28;20045;-90
2023/09/24 10:43:22;;;;;;;2.70;0.60;;;16.50;91.90;;;;;;5021811;28;20045;-95
2023/09/24 10:46:27;;;;;;;1.83;0.60;;;16.50;91.60;;;;;;5021542;28;20076;-89
2023/09/24 10:49:21;;;;;;;2.05;0.50;;;16.50;91.50;;;;;;5154613;23;20100;-95
2023/09/24 10:52:45;;;;;;;3.40;1.00;;;16.60;91.30;;;;;;5004047;28;20058;-96
2023/09/24 10:55:15;;;;;;;1.17;0.40;;;16.70;90.80;;;;;;4983751;28;20046;-96
2023/09/24 10:58:20;;;;;;;2.78;0.45;;;16.70;90.60;;;;;;4993077;28;20078;-96
2023/09/24 11:00:59;;;;;;;1.55;0.70;;;16.80;90.60;;;;;;4968676;28;20042;-93
2023/09/24 11:04:03;;;;;;;;;;;;;;;;;;;;;
2023/09/24 11:06:50;;;;;;;1.08;0.38;;;16.80;90.20;;;;;;4943420;29;20051;-90
2023/09/24 11:13:20;;;;;;;1.25;0.40;;;16.90;90.30;;;;;;4931532;29;20072;-94
2023/09/24 11:15:55;;;;;;;1.00;0.40;;;17.00;90.00;;;;;;4942811;28;20058;-91
2023/09/24 11:18:28;;;;;;;2.22;0.30;;;17.10;90.00;;;;;;4981499;28;20071;-91
2023/09/24 11:20:58;;;;;;;1.67;0.40;;;17.20;90.10;;;;;;4997119;28;20497;-90
2023/09/24 11:23:36;;;;;;;2.60;0.40;;;17.20;89.30;;;;;;4967902;28;20046;-88
2023/09/24 11:26:03;;;;;;;2.80;0.60;;;17.40;89.10;;;;;;4997167;28;20133;-92
2023/09/24 11:28:31;;;;;;;1.70;0.60;;;17.50;89.00;;;;;;4996843;28;20046;-94
2023/09/24 11:30:59;;;;;;;1.77;0.30;;;17.50;88.70;;;;;;4978204;28;20070;-92
2023/09/24 11:33:31;;;;;;;1.20;0.30;;;17.60;88.80;;;;;;4996246;28;20158;-87
2023/09/24 11:35:58;;;;;;;0.60;0.20;;;17.60;88.70;;;;;;4996351;28;20074;-89
2023/09/24 11:38:35;;;;;;;1.30;0.30;;;17.60;88.90;;;;;;4989501;28;20046;-96
2023/09/24 11:41:48;;;;;;;4.75;0.40;;;17.70;88.60;;;;;;4971945;28;20030;-96
2023/09/24 11:44:18;;;;;;;2.15;0.40;;;17.80;88.10;;;;;;5001974;28;20037;-93
2023/09/24 11:47:09;;;;;;;1.35;0.30;;;17.90;87.40;;;;;;4981459;28;20058;-92
2023/09/24 11:49:46;;;;;;;1.13;0.40;;;17.90;87.30;;;;;;4984121;28;20057;-92
2023/09/24 11:52:21;;;;;;;2.35;0.40;;;18.00;87.30;;;;;;4991387;28;20054;-94
2023/09/24 11:54:49;;;;;;;1.45;0.47;;;18.10;87.00;;;;;;4974940;28;20113;-93
2023/09/24 11:57:16;;;;;;;1.90;0.43;;;18.10;86.80;;;;;;4980262;28;20043;-89
2023/09/24 11:59:45;;;;;;;1.73;0.30;;;18.20;86.40;;;;;;4982366;28;20042;-89
2023/09/24 12:02:15;;;;;;;2.22;0.63;;;18.30;86.30;;;;;;4964803;28;20042;-92
2023/09/24 12:04:52;;;;;;;1.00;0.20;;;18.40;86.00;;;;;;4996879;28;20050;-92
2023/09/24 12:07:20;;;;;;;1.60;0.20;;;18.40;85.90;;;;;;4996160;28;20053;-88
2023/09/24 12:09:47;;;;;;;2.05;0.30;;;18.40;86.10;;;;;;4963872;28;20064;-92
2023/09/24 12:12:17;;;;;;;2.00;0.35;;;18.50;86.20;;;;;;4980638;28;20046;-90
2023/09/24 12:15:07;;;;;;;1.25;0.22;;;18.50;86.10;;;;;;4980618;28;20055;-95
2023/09/24 12:17:41;;;;;;;3.83;0.30;;;18.60;86.00;;;;;;4965237;28;20050;-91
2023/09/24 12:20:14;;;;;;;2.22;0.50;;;18.60;85.70;;;;;;4965730;28;20128;-93
2023/09/24 12:22:42;;;;;;;2.00;0.30;;;18.70;84.50;;;;;;4980157;28;20047;-92
2023/09/24 12:25:11;;;;;;;2.28;0.40;;;18.80;84.80;;;;;;4965401;28;20042;-93
2023/09/24 12:27:44;;;;;;;1.40;0.38;;;18.90;84.30;;;;;;4996290;28;20132;-90
2023/09/24 12:30:38;;;;;;;2.47;0.32;;;18.90;84.40;;;;;;4980833;28;20046;-90
2023/09/24 12:33:13;;;;;;;1.08;0.28;;;18.90;84.20;;;;;;5000750;28;20072;-95
2023/09/24 12:35:42;;;;;;;1.05;0.30;;;18.80;84.60;;;;;;4999785;28;20113;-94
2023/09/24 12:38:13;;;;;;;1.20;0.30;;;18.80;84.70;;;;;;4998932;28;20045;-91
2023/09/24 12:40:41;;;;;;;1.23;0.20;;;18.70;84.80;;;;;;4992175;28;20054;-90
2023/09/24 12:43:11;;;;;;;1.05;0.20;;;18.70;85.00;;;;;;4978771;28;20301;-90
2023/09/24 12:45:38;;;;;;;1.17;0.22;;;18.60;84.90;;;;;;4971818;28;20050;-91
2023/09/24 12:48:10;;;;;;;0.90;0.30;;;18.50;84.60;;;;;;4964167;28;20042;-94
2023/09/24 12:50:37;;;;;;;1.27;0.40;;;18.40;84.10;;;;;;4997557;28;20480;-90
2023/09/24 12:53:09;;;;;;;1.40;0.40;;;18.40;84.30;;;;;;5014182;28;20112;-94
2023/09/24 12:55:36;;;;;;;2.30;0.40;;;18.30;84.60;;;;;;4969792;28;20111;-90
2023/09/24 12:58:04;;;;;;;0.70;0.30;;;18.30;84.00;;;;;;4979864;28;20051;-91
2023/09/24 13:00:31;;;;;;;1.70;0.40;;;18.30;84.10;;;;;;4982840;28;20050;-95
2023/09/24 13:02:59;;;;;;;1.13;0.40;;;18.20;83.80;;;;;;4979994;28;20148;-90
2023/09/24 13:05:27;;;;;;;2.88;0.40;;;18.30;83.50;;;;;;4988876;28;20054;-96
2023/09/24 13:07:54;;;;;;;2.35;0.30;;;18.20;83.60;;;;;;4963460;28;20493;-94
2023/09/24 13:10:22;;;;;;;1.70;0.40;;;18.30;83.90;;;;;;4984562;28;20049;-92
2023/09/24 13:12:49;;;;;;;1.13;0.20;;;18.30;84.00;;;;;;4966297;28;20071;-96